createdAt,value
2023-03-27T00:01:22.784Z,14.43
2023-03-27T00:03:50.471Z,17.35
2023-03-27T00:06:19.002Z,15.82
2023-03-27T00:08:48.411Z,16.35
2023-03-27T00:11:15.895Z,14.10
2023-03-27T00:13:49.856Z,16.98
2023-03-27T00:16:20.300Z,14.07
2023-03-27T00:18:47.512Z,14.07
2023-03-27T00:21:14.980Z,14.05
2023-03-27T00:23:42.612Z,16.48
2023-03-27T00:26:10.722Z,16.30
2023-03-27T00:28:37.620Z,15.70
2023-03-27T00:31:04.936Z,15.07
2023-03-27T00:33:32.276Z,14.43
2023-03-27T00:35:59.224Z,15.30
2023-03-27T00:38:26.340Z,14.38
2023-03-27T00:40:55.569Z,13.40
2023-03-27T00:43:22.971Z,16.77
2023-03-27T00:45:52.751Z,14.10
2023-03-27T00:48:22.838Z,13.02
2023-03-27T00:50:50.437Z,16.83
2023-03-27T00:53:24.991Z,13.40
2023-03-27T00:55:54.993Z,11.40
2023-03-27T00:58:36.592Z,12.88
2023-03-27T01:01:04.003Z,12.00
2023-03-27T01:03:32.483Z,17.42
2023-03-27T01:06:01.894Z,12.05
2023-03-27T01:08:32.017Z,11.38
2023-03-27T01:11:19.192Z,12.75
2023-03-27T01:14:03.882Z,12.27
2023-03-27T01:16:43.144Z,10.02
2023-03-27T01:19:49.825Z,10.20
2023-03-27T01:22:17.129Z,11.98
2023-03-27T01:25:17.525Z,12.02
2023-03-27T01:28:10.706Z,9.50
2023-03-27T01:30:37.951Z,9.05
2023-03-27T01:33:36.597Z,8.70
2023-03-27T01:36:10.677Z,10.00
2023-03-27T01:38:43.300Z,11.85
2023-03-27T01:41:19.877Z,12.20
2023-03-27T01:43:58.947Z,12.15
2023-03-27T01:46:32.389Z,11.20
2023-03-27T01:49:13.516Z,8.77
2023-03-27T01:54:24.904Z,11.55
2023-03-27T01:57:02.653Z,8.63
2023-03-27T01:59:33.860Z,6.00
2023-03-27T02:04:40.906Z,6.38
2023-03-27T02:07:12.564Z,6.53
2023-03-27T02:09:54.217Z,6.10
2023-03-27T02:12:32.143Z,6.82
2023-03-27T02:15:30.544Z,6.18
2023-03-27T02:18:08.108Z,5.78
2023-03-27T02:20:36.692Z,7.50
2023-03-27T02:23:04.533Z,10.07
2023-03-27T02:25:40.455Z,9.25
2023-03-27T02:28:33.305Z,8.45
2023-03-27T02:31:32.615Z,9.15
2023-03-27T02:34:18.529Z,7.13
2023-03-27T02:37:03.954Z,5.95
2023-03-27T02:39:58.502Z,5.97
2023-03-27T02:42:33.109Z,6.85
2023-03-27T02:45:23.033Z,5.40
2023-03-27T02:47:57.425Z,6.63
2023-03-27T02:50:37.144Z,4.38
2023-03-27T02:53:06.097Z,4.13
2023-03-27T02:55:39.112Z,4.07
2023-03-27T02:58:19.934Z,5.60
2023-03-27T03:00:50.782Z,4.05
2023-03-27T03:03:39.012Z,5.00
2023-03-27T03:06:07.269Z,4.13
2023-03-27T03:08:38.892Z,3.45
2023-03-27T03:11:10.346Z,3.20
2023-03-27T03:16:04.771Z,4.38
2023-03-27T03:18:31.641Z,4.03
2023-03-27T03:20:58.686Z,5.88
2023-03-27T03:23:26.472Z,4.97
2023-03-27T03:25:56.747Z,5.05
2023-03-27T03:28:27.149Z,4.53
2023-03-27T03:30:55.062Z,5.57
2023-03-27T03:33:22.233Z,5.03
2023-03-27T03:35:50.962Z,5.65
2023-03-27T03:38:28.117Z,6.57
2023-03-27T03:40:56.595Z,6.95
2023-03-27T03:43:28.133Z,9.85
2023-03-27T03:45:55.837Z,9.85
2023-03-27T03:48:23.631Z,8.93
2023-03-27T03:50:50.761Z,9.15
2023-03-27T03:53:20.177Z,9.15
2023-03-27T03:55:50.714Z,8.30
2023-03-27T03:58:18.946Z,10.18
2023-03-27T04:00:47.185Z,7.40
2023-03-27T04:03:14.935Z,6.82
2023-03-27T04:05:42.745Z,5.70
2023-03-27T04:08:09.797Z,5.28
2023-03-27T04:10:39.413Z,7.03
2023-03-27T04:13:06.701Z,5.95
2023-03-27T04:15:33.859Z,6.22
2023-03-27T04:18:01.280Z,5.22
2023-03-27T04:20:28.401Z,3.75
2023-03-27T04:22:56.236Z,4.90
2023-03-27T04:25:24.793Z,3.60
2023-03-27T04:27:52.232Z,2.00
2023-03-27T04:30:24.651Z,3.70
2023-03-27T04:32:53.140Z,2.42
2023-03-27T04:35:21.109Z,2.03
2023-03-27T04:37:48.938Z,1.77
2023-03-27T04:40:20.102Z,1.20
2023-03-27T04:42:47.028Z,3.17
2023-03-27T04:45:20.558Z,0.90
2023-03-27T04:47:49.206Z,0.80
2023-03-27T04:50:16.680Z,0.70
2023-03-27T04:52:44.209Z,0.68
2023-03-27T04:55:12.341Z,1.20
2023-03-27T04:57:39.930Z,0.63
2023-03-27T05:00:19.166Z,2.78
2023-03-27T05:02:52.764Z,1.25
2023-03-27T05:05:20.373Z,1.13
2023-03-27T05:07:48.774Z,1.58
2023-03-27T05:10:17.471Z,0.70
2023-03-27T05:12:50.509Z,1.90
2023-03-27T05:15:18.454Z,2.42
2023-03-27T05:17:47.328Z,1.10
2023-03-27T05:20:17.094Z,1.73
2023-03-27T05:22:44.387Z,2.28
2023-03-27T05:25:12.822Z,2.05
2023-03-27T05:27:48.234Z,1.83
2023-03-27T05:30:17.287Z,2.17
2023-03-27T05:32:48.884Z,2.10
2023-03-27T05:35:20.913Z,1.77
2023-03-27T05:37:49.313Z,2.67
2023-03-27T05:40:17.724Z,0.88
2023-03-27T05:42:45.494Z,1.85
2023-03-27T05:45:13.195Z,1.30
2023-03-27T05:47:51.981Z,1.02
2023-03-27T05:50:20.577Z,1.38
2023-03-27T05:52:47.886Z,2.65
2023-03-27T05:55:15.401Z,2.03
2023-03-27T05:57:42.592Z,2.47
2023-03-27T06:00:14.069Z,1.38
2023-03-27T06:02:45.088Z,1.90
2023-03-27T06:05:16.253Z,5.95
2023-03-27T06:07:44.074Z,4.63
2023-03-27T06:10:14.295Z,14.07
2023-03-27T06:12:42.866Z,13.27
2023-03-27T06:15:11.361Z,17.30
2023-03-27T06:17:42.910Z,14.55
2023-03-27T06:20:12.876Z,11.10
2023-03-27T06:22:51.979Z,5.00
2023-03-27T06:25:20.455Z,4.10
2023-03-27T06:27:49.602Z,4.05
2023-03-27T06:30:23.074Z,2.20
2023-03-27T06:32:52.646Z,2.03
2023-03-27T06:35:20.382Z,1.95
2023-03-27T06:37:51.429Z,3.15
2023-03-27T06:40:24.111Z,2.88
2023-03-27T06:42:58.545Z,2.25
2023-03-27T06:45:28.401Z,2.38
2023-03-27T06:48:00.661Z,2.40
2023-03-27T06:50:47.678Z,2.92
2023-03-27T06:53:26.712Z,2.58
2023-03-27T06:55:56.026Z,6.20
2023-03-27T06:58:23.397Z,3.08
2023-03-27T07:00:51.479Z,1.88
2023-03-27T07:03:20.842Z,1.52
2023-03-27T07:05:49.215Z,2.20
2023-03-27T07:08:24.217Z,2.13
2023-03-27T07:11:11.522Z,7.68
2023-03-27T07:13:41.139Z,23.05
2023-03-27T07:16:09.595Z,12.75
2023-03-27T07:18:36.733Z,7.88
2023-03-27T07:21:03.838Z,1.95
2023-03-27T07:23:31.551Z,3.80
2023-03-27T07:26:00.104Z,2.90
2023-03-27T07:28:28.605Z,1.45
2023-03-27T07:30:55.746Z,3.17
2023-03-27T07:33:22.980Z,1.27
2023-03-27T07:35:50.072Z,1.90
2023-03-27T07:38:18.458Z,4.20
2023-03-27T07:40:46.617Z,4.55
2023-03-27T07:43:14.300Z,2.67
2023-03-27T07:45:42.224Z,3.22
2023-03-27T07:48:16.956Z,2.95
2023-03-27T07:50:45.200Z,4.00
2023-03-27T07:53:32.676Z,1.85
2023-03-27T07:55:59.450Z,5.88
2023-03-27T07:58:26.902Z,2.70
2023-03-27T08:00:54.414Z,3.03
2023-03-27T08:03:22.192Z,2.53
2023-03-27T08:05:57.794Z,2.95
2023-03-27T08:08:26.384Z,1.83
2023-03-27T08:10:57.951Z,2.45
2023-03-27T08:13:25.413Z,3.88
2023-03-27T08:15:53.085Z,2.05
2023-03-27T08:18:20.230Z,3.25
2023-03-27T08:20:48.475Z,3.38
2023-03-27T08:23:15.492Z,2.22
2023-03-27T08:25:42.936Z,1.45
2023-03-27T08:28:09.862Z,2.22
2023-03-27T08:30:36.798Z,2.65
2023-03-27T08:33:03.922Z,18.20
2023-03-27T08:35:31.172Z,16.33
2023-03-27T08:37:58.299Z,10.23
2023-03-27T08:40:29.078Z,8.73
2023-03-27T08:43:02.259Z,9.20
2023-03-27T08:46:06.120Z,5.68
2023-03-27T08:48:42.225Z,6.13
2023-03-27T08:51:25.872Z,5.05
2023-03-27T08:54:19.246Z,3.58
2023-03-27T08:56:46.754Z,2.78
2023-03-27T08:59:17.644Z,3.72
2023-03-27T09:01:53.680Z,4.25
2023-03-27T09:04:38.769Z,12.52
2023-03-27T09:07:19.523Z,10.57
2023-03-27T09:10:22.811Z,9.30
2023-03-27T09:13:07.644Z,12.38
2023-03-27T09:15:41.908Z,15.65
2023-03-27T09:18:21.126Z,24.92
2023-03-27T09:20:55.517Z,14.63
2023-03-27T09:23:31.932Z,23.70
2023-03-27T09:26:04.200Z,19.10
2023-03-27T09:28:37.137Z,11.02
2023-03-27T09:31:32.640Z,2.85
2023-03-27T09:34:07.020Z,1.85
2023-03-27T09:36:36.030Z,1.15
2023-03-27T09:39:07.787Z,0.88
2023-03-27T09:41:58.175Z,1.63
2023-03-27T09:44:28.864Z,5.47
2023-03-27T09:47:04.862Z,1.92
2023-03-27T09:49:32.933Z,2.33
2023-03-27T09:52:01.314Z,1.60
2023-03-27T09:54:31.858Z,3.33
2023-03-27T09:57:11.253Z,1.83
2023-03-27T09:59:59.908Z,4.38
2023-03-27T10:02:29.302Z,6.05
2023-03-27T10:05:22.403Z,4.18
2023-03-27T10:07:49.288Z,2.85
2023-03-27T10:10:21.170Z,3.35
2023-03-27T10:12:57.541Z,2.40
2023-03-27T10:15:30.440Z,1.70
2023-03-27T10:17:57.824Z,1.60
2023-03-27T10:20:25.598Z,1.45
2023-03-27T10:23:00.175Z,1.70
2023-03-27T10:25:31.165Z,4.70
2023-03-27T10:28:18.853Z,3.08
2023-03-27T10:30:45.882Z,2.72
2023-03-27T10:33:12.942Z,2.67
2023-03-27T10:35:44.879Z,1.88
2023-03-27T10:38:17.436Z,2.70
2023-03-27T10:40:50.025Z,3.58
2023-03-27T10:43:27.953Z,3.28
2023-03-27T10:46:05.114Z,3.65
2023-03-27T10:48:44.198Z,3.70
2023-03-27T10:51:45.583Z,2.38
2023-03-27T10:54:42.202Z,6.35
2023-03-27T10:57:31.125Z,2.40
2023-03-27T11:00:22.723Z,6.20
2023-03-27T11:03:03.095Z,5.22
2023-03-27T11:05:36.743Z,5.03
2023-03-27T11:08:08.526Z,1.90
2023-03-27T11:10:41.824Z,1.83
2023-03-27T11:13:38.825Z,1.33
2023-03-27T11:16:27.260Z,0.90
2023-03-27T11:19:02.789Z,2.00
2023-03-27T11:21:47.415Z,1.33
2023-03-27T11:24:51.016Z,1.25
2023-03-27T11:27:33.862Z,3.03
2023-03-27T11:30:23.125Z,5.03
2023-03-27T11:32:50.393Z,1.00
2023-03-27T11:35:25.911Z,5.28
2023-03-27T11:37:59.710Z,4.93
2023-03-27T11:40:35.467Z,3.97
2023-03-27T11:43:03.075Z,2.90
2023-03-27T11:45:53.245Z,5.13
2023-03-27T11:48:58.672Z,1.00
2023-03-27T11:51:55.112Z,1.90
2023-03-27T11:54:22.359Z,0.95
2023-03-27T11:56:58.017Z,1.27
2023-03-27T11:59:46.759Z,2.08
2023-03-27T12:02:32.673Z,4.75
2023-03-27T12:05:09.090Z,1.75
2023-03-27T12:07:48.217Z,2.15
2023-03-27T12:10:31.918Z,0.52
2023-03-27T12:13:41.939Z,1.30
2023-03-27T12:16:44.032Z,1.17
2023-03-27T12:19:34.139Z,2.00
2023-03-27T12:22:26.072Z,3.30
2023-03-27T12:25:01.629Z,2.33
2023-03-27T12:27:34.404Z,5.47
2023-03-27T12:30:17.955Z,1.20
2023-03-27T12:32:55.383Z,1.50
2023-03-27T12:35:27.105Z,2.45
2023-03-27T12:40:59.321Z,1.92
2023-03-27T12:43:39.728Z,1.25
2023-03-27T12:46:20.090Z,0.57
2023-03-27T12:49:13.361Z,2.23
2023-03-27T12:51:51.143Z,1.65
2023-03-27T12:54:30.450Z,1.65
2023-03-27T12:57:14.698Z,1.35
2023-03-27T13:00:01.420Z,2.83
2023-03-27T13:02:50.273Z,0.85
2023-03-27T13:05:39.032Z,1.63
2023-03-27T13:08:22.084Z,5.72
2023-03-27T13:11:21.456Z,1.08
2023-03-27T13:14:19.468Z,2.83
2023-03-27T13:16:56.840Z,2.50
2023-03-27T13:19:44.347Z,1.05
2023-03-27T13:22:37.115Z,7.28
2023-03-27T13:25:26.344Z,1.40
2023-03-27T13:28:30.694Z,1.83
2023-03-27T13:31:00.079Z,6.35
2023-03-27T13:33:30.170Z,4.88
2023-03-27T13:36:14.957Z,4.38
2023-03-27T13:39:14.749Z,5.90
2023-03-27T13:41:54.395Z,3.78
2023-03-27T13:44:42.283Z,3.13
2023-03-27T13:47:09.225Z,2.92
2023-03-27T13:49:51.450Z,3.58
2023-03-27T13:52:27.695Z,1.50
2023-03-27T13:55:10.736Z,2.88
2023-03-27T13:58:00.636Z,1.25
2023-03-27T14:01:07.841Z,1.23
2023-03-27T14:03:41.936Z,7.45
2023-03-27T14:06:42.653Z,4.45
2023-03-27T14:09:42.890Z,0.68
2023-03-27T14:12:18.827Z,1.65
2023-03-27T14:15:09.951Z,3.67
2023-03-27T14:17:55.550Z,2.35
2023-03-27T14:20:54.298Z,1.48
2023-03-27T14:23:48.024Z,3.38
2023-03-27T14:26:18.896Z,2.25
2023-03-27T14:28:51.634Z,0.80
2023-03-27T14:31:20.538Z,1.95
2023-03-27T14:34:10.158Z,2.20
2023-03-27T14:36:42.546Z,1.15
2023-03-27T14:39:15.092Z,5.43
2023-03-27T14:41:49.437Z,2.17
2023-03-27T14:44:18.947Z,1.13
2023-03-27T14:46:49.172Z,3.70
2023-03-27T14:49:21.485Z,2.58
2023-03-27T14:51:54.197Z,4.10
2023-03-27T14:54:27.399Z,1.35
2023-03-27T14:56:57.257Z,2.05
2023-03-27T14:59:28.530Z,3.65
2023-03-27T15:01:58.117Z,4.15
2023-03-27T15:04:27.163Z,3.95
2023-03-27T15:07:18.984Z,4.00
2023-03-27T15:09:47.417Z,1.98
2023-03-27T15:12:14.323Z,3.80
2023-03-27T15:14:41.967Z,3.75
2023-03-27T15:17:15.000Z,1.77
2023-03-27T15:19:54.859Z,1.80
2023-03-27T15:22:30.209Z,1.50
2023-03-27T15:25:05.158Z,1.42
2023-03-27T15:27:35.184Z,3.67
2023-03-27T15:30:15.554Z,4.65
2023-03-27T15:32:50.883Z,2.80
2023-03-27T15:35:25.408Z,1.15
2023-03-27T15:37:53.094Z,3.53
2023-03-27T15:40:24.895Z,6.50
2023-03-27T15:42:51.718Z,3.80
2023-03-27T15:45:23.892Z,2.05
2023-03-27T15:48:06.930Z,4.00
2023-03-27T15:50:34.562Z,3.38
2023-03-27T15:53:02.430Z,1.90
2023-03-27T15:55:39.708Z,2.10
2023-03-27T15:58:23.422Z,2.20
2023-03-27T16:00:53.386Z,2.05
2023-03-27T16:03:23.492Z,1.80
2023-03-27T16:05:52.382Z,3.42
2023-03-27T16:08:28.628Z,7.07
2023-03-27T16:10:55.908Z,2.25
2023-03-27T16:13:27.609Z,1.60
2023-03-27T16:16:00.642Z,0.88
2023-03-27T16:18:35.216Z,4.93
2023-03-27T16:21:07.573Z,3.05
2023-03-27T16:23:34.466Z,4.55
2023-03-27T16:26:02.495Z,2.05
2023-03-27T16:28:30.088Z,2.33
2023-03-27T16:33:46.369Z,1.15
2023-03-27T16:36:16.183Z,1.15
2023-03-27T16:38:43.960Z,1.15
2023-03-27T16:41:15.265Z,2.22
2023-03-27T16:43:43.174Z,2.63
2023-03-27T16:46:30.540Z,4.13
2023-03-27T16:48:57.986Z,7.35
2023-03-27T16:51:27.354Z,3.92
2023-03-27T16:54:00.224Z,3.30
2023-03-27T16:56:27.146Z,2.17
2023-03-27T16:58:54.451Z,2.92
2023-03-27T17:01:24.117Z,3.03
2023-03-27T17:03:51.293Z,1.67
2023-03-27T17:06:19.699Z,2.80
2023-03-27T17:08:48.432Z,2.20
2023-03-27T17:11:15.752Z,1.67
2023-03-27T17:13:43.791Z,1.75
2023-03-27T17:16:11.467Z,2.15
2023-03-27T17:18:38.954Z,3.80
2023-03-27T17:21:06.684Z,2.80
2023-03-27T17:23:34.641Z,2.40
2023-03-27T17:26:03.335Z,3.83
2023-03-27T17:28:34.260Z,4.82
2023-03-27T17:31:05.310Z,4.72
2023-03-27T17:33:36.372Z,37.42
2023-03-27T17:36:08.819Z,2.53
2023-03-27T17:38:36.228Z,3.35
2023-03-27T17:41:03.981Z,3.80
2023-03-27T17:43:30.932Z,2.28
2023-03-27T17:45:58.852Z,3.42
2023-03-27T17:48:26.106Z,1.55
2023-03-27T17:51:07.481Z,3.45
2023-03-27T17:53:39.424Z,2.25
2023-03-27T17:56:07.542Z,10.57
2023-03-27T17:58:35.174Z,1.90
2023-03-27T18:01:13.112Z,1.60
2023-03-27T18:03:40.386Z,1.15
2023-03-27T18:06:07.686Z,2.03
2023-03-27T18:08:34.733Z,2.35
2023-03-27T18:11:01.883Z,2.58
2023-03-27T18:13:30.584Z,2.33
2023-03-27T18:15:58.742Z,1.17
2023-03-27T18:18:26.247Z,7.57
2023-03-27T18:20:54.205Z,3.00
2023-03-27T18:23:22.158Z,1.50
2023-03-27T18:25:49.224Z,4.88
2023-03-27T18:28:16.444Z,2.47
2023-03-27T18:30:44.393Z,1.70
2023-03-27T18:33:12.221Z,2.17
2023-03-27T18:35:39.276Z,4.78
2023-03-27T18:38:06.887Z,3.63
2023-03-27T18:40:33.947Z,3.45
2023-03-27T18:43:01.099Z,3.38
2023-03-27T18:45:28.146Z,4.68
2023-03-27T18:47:55.056Z,4.35
2023-03-27T18:50:21.971Z,5.88
2023-03-27T18:52:48.868Z,4.47
2023-03-27T18:55:16.082Z,2.47
2023-03-27T18:57:46.184Z,3.25
2023-03-27T19:00:20.342Z,2.33
2023-03-27T19:02:48.107Z,2.35
2023-03-27T19:05:16.408Z,2.78
2023-03-27T19:07:44.857Z,1.95
2023-03-27T19:10:12.869Z,1.88
2023-03-27T19:12:39.854Z,4.82
2023-03-27T19:15:19.440Z,2.10
2023-03-27T19:17:47.458Z,1.88
2023-03-27T19:20:16.675Z,3.13
2023-03-27T19:22:45.740Z,2.13
2023-03-27T19:25:13.012Z,1.60
2023-03-27T19:27:39.958Z,2.08
2023-03-27T19:30:08.557Z,1.98
2023-03-27T19:32:38.118Z,2.25
2023-03-27T19:35:05.784Z,3.90
2023-03-27T19:37:32.724Z,2.60
2023-03-27T19:39:59.889Z,3.28
2023-03-27T19:42:28.595Z,3.50
2023-03-27T19:44:58.440Z,4.03
2023-03-27T19:47:25.839Z,3.40
2023-03-27T19:49:56.618Z,4.45
2023-03-27T19:52:25.848Z,2.67
2023-03-27T19:57:44.838Z,4.47
2023-03-27T20:00:13.091Z,2.97
2023-03-27T20:02:41.027Z,6.35
2023-03-27T20:05:08.363Z,3.58
2023-03-27T20:07:35.363Z,5.07
2023-03-27T20:10:02.345Z,2.78
2023-03-27T20:12:30.615Z,4.15
2023-03-27T20:15:10.936Z,3.05
2023-03-27T20:17:38.949Z,4.00
2023-03-27T20:20:07.341Z,2.85
2023-03-27T20:22:40.711Z,2.47
2023-03-27T20:25:14.678Z,2.80
2023-03-27T20:27:41.904Z,4.15
2023-03-27T20:30:14.357Z,2.85
2023-03-27T20:32:43.302Z,3.13
2023-03-27T20:35:22.875Z,3.88
2023-03-27T20:37:57.684Z,3.40
2023-03-27T20:40:26.174Z,3.10
2023-03-27T20:43:04.039Z,2.92
2023-03-27T20:45:34.331Z,3.28
2023-03-27T20:48:03.330Z,3.20
2023-03-27T20:50:31.194Z,5.07
2023-03-27T20:52:58.090Z,3.40
2023-03-27T20:55:33.766Z,7.38
2023-03-27T20:58:06.654Z,3.75
2023-03-27T21:00:35.661Z,4.45
2023-03-27T21:03:02.743Z,5.45
2023-03-27T21:05:29.891Z,2.47
2023-03-27T21:07:56.780Z,3.30
2023-03-27T21:10:24.960Z,2.72
2023-03-27T21:12:53.718Z,2.75
2023-03-27T21:15:20.648Z,4.15
2023-03-27T21:17:47.606Z,2.70
2023-03-27T21:20:17.155Z,2.60
2023-03-27T21:22:44.154Z,2.90
2023-03-27T21:25:11.217Z,2.60
2023-03-27T21:27:38.510Z,4.03
2023-03-27T21:30:06.328Z,3.60
2023-03-27T21:32:33.207Z,5.00
2023-03-27T21:35:00.365Z,2.88
2023-03-27T21:37:27.346Z,4.00
2023-03-27T21:39:54.256Z,3.92
2023-03-27T21:42:21.945Z,4.53
2023-03-27T21:44:53.170Z,4.15
2023-03-27T21:47:22.105Z,4.28
2023-03-27T21:49:49.078Z,5.65
2023-03-27T21:52:16.279Z,6.10
2023-03-27T21:54:52.957Z,4.60
2023-03-27T21:57:27.397Z,6.28
2023-03-27T21:59:54.327Z,6.10
2023-03-27T22:02:21.656Z,7.75
2023-03-27T22:04:48.720Z,5.53
2023-03-27T22:07:16.143Z,6.72
2023-03-27T22:09:46.459Z,5.00
2023-03-27T22:12:13.477Z,6.07
2023-03-27T22:14:40.542Z,5.90
2023-03-27T22:17:07.616Z,6.07
2023-03-27T22:19:34.522Z,5.93
2023-03-27T22:22:01.865Z,4.40
2023-03-27T22:24:29.006Z,6.13
2023-03-27T22:26:57.065Z,11.65
2023-03-27T22:29:24.132Z,5.78
2023-03-27T22:31:51.001Z,6.60
2023-03-27T22:34:17.955Z,5.38
2023-03-27T22:36:44.949Z,6.75
2023-03-27T22:39:11.869Z,5.60
2023-03-27T22:41:38.899Z,7.07
2023-03-27T22:44:05.951Z,5.93
2023-03-27T22:46:33.921Z,4.05
2023-03-27T22:49:00.877Z,4.47
2023-03-27T22:51:29.720Z,3.85
2023-03-27T22:53:56.864Z,4.25
2023-03-27T22:56:23.760Z,5.30
2023-03-27T22:58:50.723Z,4.57
2023-03-27T23:01:17.666Z,5.60
2023-03-27T23:03:44.865Z,3.10
2023-03-27T23:06:20.362Z,4.68
2023-03-27T23:08:49.296Z,3.33
2023-03-27T23:11:16.899Z,5.40
2023-03-27T23:13:44.322Z,3.30
2023-03-27T23:16:12.201Z,7.10
2023-03-27T23:18:39.384Z,4.57
2023-03-27T23:21:12.346Z,5.00
2023-03-27T23:23:40.588Z,3.60
2023-03-27T23:26:08.627Z,4.28
2023-03-27T23:28:38.037Z,3.95
2023-03-27T23:31:08.067Z,4.05
2023-03-27T23:33:40.001Z,3.13
2023-03-27T23:36:13.165Z,5.38
2023-03-27T23:38:42.089Z,6.45
2023-03-27T23:41:11.238Z,5.03
2023-03-27T23:43:38.266Z,5.45
2023-03-27T23:46:10.587Z,4.45
2023-03-27T23:48:43.478Z,4.65
2023-03-27T23:51:12.283Z,3.55
2023-03-27T23:53:39.456Z,4.82
2023-03-27T23:56:07.140Z,4.57
2023-03-27T23:58:34.611Z,3.38
